sensor_id;sensor_type;location;lat;lon;timestamp;temperature;humidity
3408;DHT22;1717;50.240;8.406;2022-12-18T00:02:04;-3.50;99.90
3408;DHT22;1717;50.240;8.406;2022-12-18T00:04:31;-3.50;99.90
3408;DHT22;1717;50.240;8.406;2022-12-18T00:06:58;-3.50;99.90
3408;DHT22;1717;50.240;8.406;2022-12-18T00:09:26;-3.60;99.90
3408;DHT22;1717;50.240;8.406;2022-12-18T00:11:52;-3.60;99.90
3408;DHT22;1717;50.240;8.406;2022-12-18T00:14:19;-3.60;99.90
3408;DHT22;1717;50.240;8.406;2022-12-18T00:16:47;-3.60;99.90
3408;DHT22;1717;50.240;8.406;2022-12-18T00:19:14;-3.60;99.90
3408;DHT22;1717;50.240;8.406;2022-12-18T00:21:42;-3.60;99.90
3408;DHT22;1717;50.240;8.406;2022-12-18T00:24:10;-3.60;99.90
3408;DHT22;1717;50.240;8.406;2022-12-18T00:26:38;-3.70;99.90
3408;DHT22;1717;50.240;8.406;2022-12-18T00:29:07;-3.60;99.90
3408;DHT22;1717;50.240;8.406;2022-12-18T00:31:34;-3.60;99.90
3408;DHT22;1717;50.240;8.406;2022-12-18T00:34:02;-3.60;99.90
3408;DHT22;1717;50.240;8.406;2022-12-18T00:36:31;-3.60;99.90
3408;DHT22;1717;50.240;8.406;2022-12-18T00:39:00;-3.60;99.90
3408;DHT22;1717;50.240;8.406;2022-12-18T00:41:27;-3.60;99.90
3408;DHT22;1717;50.240;8.406;2022-12-18T00:44:13;-3.60;99.90
3408;DHT22;1717;50.240;8.406;2022-12-18T00:46:41;-3.60;99.90
3408;DHT22;1717;50.240;8.406;2022-12-18T00:49:13;-3.70;99.90
3408;DHT22;1717;50.240;8.406;2022-12-18T00:51:41;-3.70;99.90
3408;DHT22;1717;50.240;8.406;2022-12-18T00:54:07;-3.70;99.90
3408;DHT22;1717;50.240;8.406;2022-12-18T00:56:36;-3.70;99.90
3408;DHT22;1717;50.240;8.406;2022-12-18T00:59:03;-3.70;99.90
3408;DHT22;1717;50.240;8.406;2022-12-18T01:01:30;-3.70;99.90
3408;DHT22;1717;50.240;8.406;2022-12-18T01:03:59;-3.70;99.90
3408;DHT22;1717;50.240;8.406;2022-12-18T01:06:27;-3.70;99.90
3408;DHT22;1717;50.240;8.406;2022-12-18T01:08:54;-3.70;99.90
3408;DHT22;1717;50.240;8.406;2022-12-18T01:11:22;-3.70;99.90
3408;DHT22;1717;50.240;8.406;2022-12-18T01:13:49;-3.70;99.90
3408;DHT22;1717;50.240;8.406;2022-12-18T01:16:17;-3.70;99.90
3408;DHT22;1717;50.240;8.406;2022-12-18T01:18:44;-3.70;99.90
3408;DHT22;1717;50.240;8.406;2022-12-18T01:21:14;-3.80;99.90
3408;DHT22;1717;50.240;8.406;2022-12-18T01:23:46;-3.80;99.90
3408;DHT22;1717;50.240;8.406;2022-12-18T01:26:14;-3.80;99.90
3408;DHT22;1717;50.240;8.406;2022-12-18T01:28:42;-3.80;99.90
3408;DHT22;1717;50.240;8.406;2022-12-18T01:31:15;-3.80;99.90
3408;DHT22;1717;50.240;8.406;2022-12-18T01:33:43;-3.80;99.90
3408;DHT22;1717;50.240;8.406;2022-12-18T01:36:15;-3.80;99.90
3408;DHT22;1717;50.240;8.406;2022-12-18T01:38:42;-3.80;99.90
3408;DHT22;1717;50.240;8.406;2022-12-18T01:41:11;-3.80;99.90
3408;DHT22;1717;50.240;8.406;2022-12-18T01:43:46;-3.80;99.90
3408;DHT22;1717;50.240;8.406;2022-12-18T01:46:14;-3.80;99.90
3408;DHT22;1717;50.240;8.406;2022-12-18T01:48:41;-3.80;99.90
3408;DHT22;1717;50.240;8.406;2022-12-18T01:51:10;-3.80;99.90
3408;DHT22;1717;50.240;8.406;2022-12-18T01:53:39;-3.80;99.90
3408;DHT22;1717;50.240;8.406;2022-12-18T01:56:07;-3.80;99.90
3408;DHT22;1717;50.240;8.406;2022-12-18T01:58:41;-3.80;99.90
3408;DHT22;1717;50.240;8.406;2022-12-18T02:01:09;-3.80;99.90
3408;DHT22;1717;50.240;8.406;2022-12-18T02:03:36;-3.80;99.90
3408;DHT22;1717;50.240;8.406;2022-12-18T02:06:07;-3.80;99.90
3408;DHT22;1717;50.240;8.406;2022-12-18T02:08:42;-3.80;99.90
3408;DHT22;1717;50.240;8.406;2022-12-18T02:11:14;-3.80;99.90
3408;DHT22;1717;50.240;8.406;2022-12-18T02:13:53;-3.80;99.90
3408;DHT22;1717;50.240;8.406;2022-12-18T02:16:27;-3.80;99.90
3408;DHT22;1717;50.240;8.406;2022-12-18T02:18:59;-3.80;99.90
3408;DHT22;1717;50.240;8.406;2022-12-18T02:21:34;-3.80;99.90
3408;DHT22;1717;50.240;8.406;2022-12-18T02:24:15;-3.80;99.90
3408;DHT22;1717;50.240;8.406;2022-12-18T02:26:48;-3.90;99.90
3408;DHT22;1717;50.240;8.406;2022-12-18T02:29:20;-3.90;99.90
3408;DHT22;1717;50.240;8.406;2022-12-18T02:31:55;-3.80;99.90
3408;DHT22;1717;50.240;8.406;2022-12-18T02:34:29;-3.90;99.90
3408;DHT22;1717;50.240;8.406;2022-12-18T02:36:59;-3.90;99.90
3408;DHT22;1717;50.240;8.406;2022-12-18T02:39:29;-3.90;99.90
3408;DHT22;1717;50.240;8.406;2022-12-18T02:41:57;-3.90;99.90
3408;DHT22;1717;50.240;8.406;2022-12-18T02:44:25;-3.90;99.90
3408;DHT22;1717;50.240;8.406;2022-12-18T02:46:53;-3.80;99.90
3408;DHT22;1717;50.240;8.406;2022-12-18T02:49:28;-3.90;99.90
3408;DHT22;1717;50.240;8.406;2022-12-18T02:52:05;-3.90;99.90
3408;DHT22;1717;50.240;8.406;2022-12-18T02:54:44;-3.90;99.90
3408;DHT22;1717;50.240;8.406;2022-12-18T02:57:19;-3.90;99.90
3408;DHT22;1717;50.240;8.406;2022-12-18T02:59:56;-3.90;99.90
3408;DHT22;1717;50.240;8.406;2022-12-18T03:02:28;-4.00;99.90
3408;DHT22;1717;50.240;8.406;2022-12-18T03:05:01;-4.00;99.90
3408;DHT22;1717;50.240;8.406;2022-12-18T03:07:36;-4.00;99.90
3408;DHT22;1717;50.240;8.406;2022-12-18T03:10:05;-4.00;99.90
3408;DHT22;1717;50.240;8.406;2022-12-18T03:12:36;-3.90;99.90
3408;DHT22;1717;50.240;8.406;2022-12-18T03:15:08;-3.90;99.90
3408;DHT22;1717;50.240;8.406;2022-12-18T03:17:40;-3.90;99.90
3408;DHT22;1717;50.240;8.406;2022-12-18T03:20:12;-4.00;99.90
3408;DHT22;1717;50.240;8.406;2022-12-18T03:22:43;-4.00;99.90
3408;DHT22;1717;50.240;8.406;2022-12-18T03:25:14;-4.00;99.90
3408;DHT22;1717;50.240;8.406;2022-12-18T03:27:48;-3.90;99.90
3408;DHT22;1717;50.240;8.406;2022-12-18T03:30:16;-3.90;99.90
3408;DHT22;1717;50.240;8.406;2022-12-18T03:32:46;-3.90;99.90
3408;DHT22;1717;50.240;8.406;2022-12-18T03:35:19;-3.90;99.90
3408;DHT22;1717;50.240;8.406;2022-12-18T03:37:47;-3.90;99.90
3408;DHT22;1717;50.240;8.406;2022-12-18T03:40:14;-3.90;99.90
3408;DHT22;1717;50.240;8.406;2022-12-18T03:42:48;-3.90;99.90
3408;DHT22;1717;50.240;8.406;2022-12-18T03:45:21;-3.90;99.90
3408;DHT22;1717;50.240;8.406;2022-12-18T03:47:57;-3.80;99.90
3408;DHT22;1717;50.240;8.406;2022-12-18T03:50:33;-3.90;99.90
3408;DHT22;1717;50.240;8.406;2022-12-18T03:53:10;-3.90;99.90
3408;DHT22;1717;50.240;8.406;2022-12-18T03:55:41;-3.90;99.90
3408;DHT22;1717;50.240;8.406;2022-12-18T03:58:12;-3.90;99.90
3408;DHT22;1717;50.240;8.406;2022-12-18T04:00:40;-3.90;99.90
3408;DHT22;1717;50.240;8.406;2022-12-18T04:03:09;-3.90;99.90
3408;DHT22;1717;50.240;8.406;2022-12-18T04:05:36;-3.90;99.90
3408;DHT22;1717;50.240;8.406;2022-12-18T04:08:04;-3.80;99.90
3408;DHT22;1717;50.240;8.406;2022-12-18T04:10:31;-3.80;99.90
3408;DHT22;1717;50.240;8.406;2022-12-18T04:13:00;-3.80;99.90
3408;DHT22;1717;50.240;8.406;2022-12-18T04:15:29;-3.80;99.90
3408;DHT22;1717;50.240;8.406;2022-12-18T04:17:56;-3.80;99.90
3408;DHT22;1717;50.240;8.406;2022-12-18T04:20:23;-3.80;99.90
3408;DHT22;1717;50.240;8.406;2022-12-18T04:22:50;-3.80;99.90
3408;DHT22;1717;50.240;8.406;2022-12-18T04:25:17;-3.80;99.90
3408;DHT22;1717;50.240;8.406;2022-12-18T04:27:43;-3.80;99.90
3408;DHT22;1717;50.240;8.406;2022-12-18T04:30:11;-3.80;99.90
3408;DHT22;1717;50.240;8.406;2022-12-18T04:32:39;-3.80;99.90
3408;DHT22;1717;50.240;8.406;2022-12-18T04:35:07;-3.70;99.90
3408;DHT22;1717;50.240;8.406;2022-12-18T04:37:36;-3.70;99.90
3408;DHT22;1717;50.240;8.406;2022-12-18T04:40:03;-3.70;99.90
3408;DHT22;1717;50.240;8.406;2022-12-18T04:42:30;-3.70;99.90
3408;DHT22;1717;50.240;8.406;2022-12-18T04:44:57;-3.70;99.90
3408;DHT22;1717;50.240;8.406;2022-12-18T04:47:24;-3.70;99.90
3408;DHT22;1717;50.240;8.406;2022-12-18T04:49:52;-3.70;99.90
3408;DHT22;1717;50.240;8.406;2022-12-18T04:52:19;-3.70;99.90
3408;DHT22;1717;50.240;8.406;2022-12-18T04:54:45;-3.70;99.90
3408;DHT22;1717;50.240;8.406;2022-12-18T04:57:12;-3.60;99.90
3408;DHT22;1717;50.240;8.406;2022-12-18T04:59:39;-3.60;99.90
3408;DHT22;1717;50.240;8.406;2022-12-18T05:02:06;-3.60;99.90
3408;DHT22;1717;50.240;8.406;2022-12-18T05:04:33;-3.60;99.90
3408;DHT22;1717;50.240;8.406;2022-12-18T05:07:01;-3.60;99.90
3408;DHT22;1717;50.240;8.406;2022-12-18T05:09:28;-3.60;99.90
3408;DHT22;1717;50.240;8.406;2022-12-18T05:11:54;-3.60;99.90
3408;DHT22;1717;50.240;8.406;2022-12-18T05:14:21;-3.60;99.90
3408;DHT22;1717;50.240;8.406;2022-12-18T05:16:48;-3.60;99.90
3408;DHT22;1717;50.240;8.406;2022-12-18T05:19:15;-3.60;99.90
3408;DHT22;1717;50.240;8.406;2022-12-18T05:21:42;-3.60;99.90
3408;DHT22;1717;50.240;8.406;2022-12-18T05:24:10;-3.60;99.90
3408;DHT22;1717;50.240;8.406;2022-12-18T05:26:37;-3.60;99.90
3408;DHT22;1717;50.240;8.406;2022-12-18T05:29:04;-3.50;99.90
3408;DHT22;1717;50.240;8.406;2022-12-18T05:31:30;-3.50;99.90
3408;DHT22;1717;50.240;8.406;2022-12-18T05:33:57;-3.50;99.90
3408;DHT22;1717;50.240;8.406;2022-12-18T05:36:24;-3.50;99.90
3408;DHT22;1717;50.240;8.406;2022-12-18T05:38:51;-3.50;99.90
3408;DHT22;1717;50.240;8.406;2022-12-18T05:41:19;-3.50;99.90
3408;DHT22;1717;50.240;8.406;2022-12-18T05:43:46;-3.50;99.90
3408;DHT22;1717;50.240;8.406;2022-12-18T05:46:15;-3.50;99.90
3408;DHT22;1717;50.240;8.406;2022-12-18T05:48:43;-3.50;99.90
3408;DHT22;1717;50.240;8.406;2022-12-18T05:51:12;-3.50;99.90
3408;DHT22;1717;50.240;8.406;2022-12-18T05:53:40;-3.50;99.90
3408;DHT22;1717;50.240;8.406;2022-12-18T05:56:11;-3.50;99.90
3408;DHT22;1717;50.240;8.406;2022-12-18T05:58:40;-3.50;99.90
3408;DHT22;1717;50.240;8.406;2022-12-18T06:01:09;-3.50;99.90
3408;DHT22;1717;50.240;8.406;2022-12-18T06:03:36;-3.50;99.90
3408;DHT22;1717;50.240;8.406;2022-12-18T06:06:03;-3.50;99.90
3408;DHT22;1717;50.240;8.406;2022-12-18T06:08:30;-3.50;99.90
3408;DHT22;1717;50.240;8.406;2022-12-18T06:10:57;-3.50;99.90
3408;DHT22;1717;50.240;8.406;2022-12-18T06:13:24;-3.50;99.90
3408;DHT22;1717;50.240;8.406;2022-12-18T06:15:52;-3.50;99.90
3408;DHT22;1717;50.240;8.406;2022-12-18T06:18:19;-3.50;99.90
3408;DHT22;1717;50.240;8.406;2022-12-18T06:20:54;-3.50;99.90
3408;DHT22;1717;50.240;8.406;2022-12-18T06:23:21;-3.50;99.90
3408;DHT22;1717;50.240;8.406;2022-12-18T06:25:48;-3.50;99.90
3408;DHT22;1717;50.240;8.406;2022-12-18T06:28:15;-3.50;99.90
3408;DHT22;1717;50.240;8.406;2022-12-18T06:30:43;-3.50;99.90
3408;DHT22;1717;50.240;8.406;2022-12-18T06:33:11;-3.50;99.90
3408;DHT22;1717;50.240;8.406;2022-12-18T06:35:38;-3.50;99.90
3408;DHT22;1717;50.240;8.406;2022-12-18T06:38:05;-3.50;99.90
3408;DHT22;1717;50.240;8.406;2022-12-18T06:40:32;-3.50;99.90
3408;DHT22;1717;50.240;8.406;2022-12-18T06:42:59;-3.40;99.90
3408;DHT22;1717;50.240;8.406;2022-12-18T06:45:26;-3.40;99.90
3408;DHT22;1717;50.240;8.406;2022-12-18T06:47:53;-3.30;99.90
3408;DHT22;1717;50.240;8.406;2022-12-18T06:50:21;-3.30;99.90
3408;DHT22;1717;50.240;8.406;2022-12-18T06:52:48;-3.20;99.90
3408;DHT22;1717;50.240;8.406;2022-12-18T06:55:15;-3.20;99.90
3408;DHT22;1717;50.240;8.406;2022-12-18T06:57:44;-3.20;99.90
3408;DHT22;1717;50.240;8.406;2022-12-18T07:00:11;-2.90;99.90
3408;DHT22;1717;50.240;8.406;2022-12-18T07:02:39;-3.10;99.90
3408;DHT22;1717;50.240;8.406;2022-12-18T07:05:06;-3.00;99.90
3408;DHT22;1717;50.240;8.406;2022-12-18T07:07:35;-3.00;99.90
3408;DHT22;1717;50.240;8.406;2022-12-18T07:10:02;-2.90;99.90
3408;DHT22;1717;50.240;8.406;2022-12-18T07:12:29;-2.90;99.90
3408;DHT22;1717;50.240;8.406;2022-12-18T07:14:56;-2.80;99.90
3408;DHT22;1717;50.240;8.406;2022-12-18T07:17:22;-2.80;99.90
3408;DHT22;1717;50.240;8.406;2022-12-18T07:19:49;-2.80;99.90
3408;DHT22;1717;50.240;8.406;2022-12-18T07:22:16;-2.80;99.90
3408;DHT22;1717;50.240;8.406;2022-12-18T07:24:44;-2.70;99.90
3408;DHT22;1717;50.240;8.406;2022-12-18T07:27:11;-2.60;99.90
3408;DHT22;1717;50.240;8.406;2022-12-18T07:29:38;-2.60;99.90
3408;DHT22;1717;50.240;8.406;2022-12-18T07:32:05;-2.60;99.90
3408;DHT22;1717;50.240;8.406;2022-12-18T07:34:32;-2.50;99.90
3408;DHT22;1717;50.240;8.406;2022-12-18T07:36:59;-2.50;99.90
3408;DHT22;1717;50.240;8.406;2022-12-18T07:39:26;-2.50;99.90
3408;DHT22;1717;50.240;8.406;2022-12-18T07:41:54;-2.40;99.90
3408;DHT22;1717;50.240;8.406;2022-12-18T07:44:38;-2.40;99.90
3408;DHT22;1717;50.240;8.406;2022-12-18T07:47:05;-2.40;99.90
3408;DHT22;1717;50.240;8.406;2022-12-18T07:49:32;-2.30;99.90
3408;DHT22;1717;50.240;8.406;2022-12-18T07:51:58;-2.30;99.90
3408;DHT22;1717;50.240;8.406;2022-12-18T07:54:25;-2.30;99.90
3408;DHT22;1717;50.240;8.406;2022-12-18T07:56:53;-2.20;99.90
3408;DHT22;1717;50.240;8.406;2022-12-18T07:59:20;-2.20;99.90
3408;DHT22;1717;50.240;8.406;2022-12-18T08:01:47;-2.20;99.90
3408;DHT22;1717;50.240;8.406;2022-12-18T08:04:14;-2.10;99.90
3408;DHT22;1717;50.240;8.406;2022-12-18T08:06:41;-2.10;99.90
3408;DHT22;1717;50.240;8.406;2022-12-18T08:09:09;-2.10;99.90
3408;DHT22;1717;50.240;8.406;2022-12-18T08:11:36;-2.00;99.90
3408;DHT22;1717;50.240;8.406;2022-12-18T08:14:04;-2.00;99.90
3408;DHT22;1717;50.240;8.406;2022-12-18T08:16:31;-1.90;99.90
3408;DHT22;1717;50.240;8.406;2022-12-18T08:18:58;-1.90;99.90
3408;DHT22;1717;50.240;8.406;2022-12-18T08:21:26;-1.90;99.90
3408;DHT22;1717;50.240;8.406;2022-12-18T08:23:55;-1.90;99.90
3408;DHT22;1717;50.240;8.406;2022-12-18T08:26:23;-1.80;99.90
3408;DHT22;1717;50.240;8.406;2022-12-18T08:28:51;-1.80;99.90
3408;DHT22;1717;50.240;8.406;2022-12-18T08:31:19;-1.80;99.90
3408;DHT22;1717;50.240;8.406;2022-12-18T08:33:48;-1.70;99.90
3408;DHT22;1717;50.240;8.406;2022-12-18T08:36:16;-1.70;99.90
3408;DHT22;1717;50.240;8.406;2022-12-18T08:38:43;-1.60;99.90
3408;DHT22;1717;50.240;8.406;2022-12-18T08:41:11;-1.60;99.90
3408;DHT22;1717;50.240;8.406;2022-12-18T08:43:39;-1.50;99.90
3408;DHT22;1717;50.240;8.406;2022-12-18T08:46:27;-1.50;99.90
3408;DHT22;1717;50.240;8.406;2022-12-18T08:48:57;-1.40;99.90
3408;DHT22;1717;50.240;8.406;2022-12-18T08:51:24;-1.30;99.90
3408;DHT22;1717;50.240;8.406;2022-12-18T08:53:51;-1.20;99.90
3408;DHT22;1717;50.240;8.406;2022-12-18T08:56:18;-1.10;99.90
3408;DHT22;1717;50.240;8.406;2022-12-18T08:58:45;-1.00;99.90
3408;DHT22;1717;50.240;8.406;2022-12-18T09:01:13;-0.90;99.90
3408;DHT22;1717;50.240;8.406;2022-12-18T09:03:41;-0.90;99.90
3408;DHT22;1717;50.240;8.406;2022-12-18T09:06:08;-0.70;99.90
3408;DHT22;1717;50.240;8.406;2022-12-18T09:08:35;-0.50;99.90
3408;DHT22;1717;50.240;8.406;2022-12-18T09:11:03;-0.60;99.90
3408;DHT22;1717;50.240;8.406;2022-12-18T09:13:32;-0.50;99.90
3408;DHT22;1717;50.240;8.406;2022-12-18T09:15:58;-0.50;99.90
3408;DHT22;1717;50.240;8.406;2022-12-18T09:18:25;-0.50;99.90
3408;DHT22;1717;50.240;8.406;2022-12-18T09:20:53;-0.50;99.90
3408;DHT22;1717;50.240;8.406;2022-12-18T09:23:21;-0.50;99.90
3408;DHT22;1717;50.240;8.406;2022-12-18T09:25:48;-0.50;99.90
3408;DHT22;1717;50.240;8.406;2022-12-18T09:28:16;-0.50;99.90
3408;DHT22;1717;50.240;8.406;2022-12-18T09:30:45;-0.50;99.90
3408;DHT22;1717;50.240;8.406;2022-12-18T09:33:12;-0.50;99.90
3408;DHT22;1717;50.240;8.406;2022-12-18T09:35:40;-0.50;99.90
3408;DHT22;1717;50.240;8.406;2022-12-18T09:38:09;-0.60;99.90
3408;DHT22;1717;50.240;8.406;2022-12-18T09:40:41;-0.60;99.90
3408;DHT22;1717;50.240;8.406;2022-12-18T09:43:14;-0.60;99.90
3408;DHT22;1717;50.240;8.406;2022-12-18T09:45:44;-0.60;99.90
3408;DHT22;1717;50.240;8.406;2022-12-18T09:48:17;-0.60;99.90
3408;DHT22;1717;50.240;8.406;2022-12-18T09:50:45;-0.60;99.90
3408;DHT22;1717;50.240;8.406;2022-12-18T09:53:19;-0.60;99.90
3408;DHT22;1717;50.240;8.406;2022-12-18T09:55:47;-0.60;99.90
3408;DHT22;1717;50.240;8.406;2022-12-18T09:58:19;-0.60;99.90
3408;DHT22;1717;50.240;8.406;2022-12-18T10:00:47;-0.60;99.90
3408;DHT22;1717;50.240;8.406;2022-12-18T10:03:15;-0.60;99.90
3408;DHT22;1717;50.240;8.406;2022-12-18T10:05:50;-0.60;99.90
3408;DHT22;1717;50.240;8.406;2022-12-18T10:08:27;-0.60;99.90
3408;DHT22;1717;50.240;8.406;2022-12-18T10:13:49;-0.50;99.90
3408;DHT22;1717;50.240;8.406;2022-12-18T10:16:25;-0.60;99.90
3408;DHT22;1717;50.240;8.406;2022-12-18T10:19:04;-0.60;99.90
3408;DHT22;1717;50.240;8.406;2022-12-18T10:21:39;-0.70;99.90
3408;DHT22;1717;50.240;8.406;2022-12-18T10:24:15;-0.60;99.90
3408;DHT22;1717;50.240;8.406;2022-12-18T10:26:44;-0.60;99.90
3408;DHT22;1717;50.240;8.406;2022-12-18T10:29:12;-0.60;99.90
3408;DHT22;1717;50.240;8.406;2022-12-18T10:31:40;-0.60;99.90
3408;DHT22;1717;50.240;8.406;2022-12-18T10:34:10;-0.60;99.90
3408;DHT22;1717;50.240;8.406;2022-12-18T10:36:45;-0.60;99.90
3408;DHT22;1717;50.240;8.406;2022-12-18T10:39:18;-0.60;99.90
3408;DHT22;1717;50.240;8.406;2022-12-18T10:41:45;-0.60;99.90
3408;DHT22;1717;50.240;8.406;2022-12-18T10:44:17;-0.60;99.90
3408;DHT22;1717;50.240;8.406;2022-12-18T10:46:45;-0.60;99.90
3408;DHT22;1717;50.240;8.406;2022-12-18T10:49:23;-0.60;99.90
3408;DHT22;1717;50.240;8.406;2022-12-18T10:52:04;-0.50;99.90
3408;DHT22;1717;50.240;8.406;2022-12-18T10:54:35;-0.50;99.90
3408;DHT22;1717;50.240;8.406;2022-12-18T10:57:15;-0.40;99.90
3408;DHT22;1717;50.240;8.406;2022-12-18T10:59:50;-0.40;99.90
3408;DHT22;1717;50.240;8.406;2022-12-18T11:02:27;-0.40;99.90
3408;DHT22;1717;50.240;8.406;2022-12-18T11:04:54;-0.30;99.90
3408;DHT22;1717;50.240;8.406;2022-12-18T11:07:22;-0.30;99.90
3408;DHT22;1717;50.240;8.406;2022-12-18T11:10:01;-0.20;99.90
3408;DHT22;1717;50.240;8.406;2022-12-18T11:12:29;-0.20;99.90
3408;DHT22;1717;50.240;8.406;2022-12-18T11:14:57;-0.20;99.90
3408;DHT22;1717;50.240;8.406;2022-12-18T11:17:28;-0.20;99.90
3408;DHT22;1717;50.240;8.406;2022-12-18T11:19:56;-0.20;99.90
3408;DHT22;1717;50.240;8.406;2022-12-18T11:22:25;-0.10;99.90
3408;DHT22;1717;50.240;8.406;2022-12-18T11:24:55;-0.10;99.90
3408;DHT22;1717;50.240;8.406;2022-12-18T11:27:24;-0.10;99.90
3408;DHT22;1717;50.240;8.406;2022-12-18T11:29:51;-0.10;99.90
3408;DHT22;1717;50.240;8.406;2022-12-18T11:32:29;0.00;99.90
3408;DHT22;1717;50.240;8.406;2022-12-18T11:35:03;0.00;99.90
3408;DHT22;1717;50.240;8.406;2022-12-18T11:37:31;0.00;99.90
3408;DHT22;1717;50.240;8.406;2022-12-18T11:40:01;0.10;99.90
3408;DHT22;1717;50.240;8.406;2022-12-18T11:42:37;0.00;99.90
3408;DHT22;1717;50.240;8.406;2022-12-18T11:45:27;0.10;99.90
3408;DHT22;1717;50.240;8.406;2022-12-18T11:47:58;0.10;99.90
3408;DHT22;1717;50.240;8.406;2022-12-18T11:50:32;0.00;99.90
3408;DHT22;1717;50.240;8.406;2022-12-18T11:53:00;0.00;99.90
3408;DHT22;1717;50.240;8.406;2022-12-18T11:55:32;0.10;99.90
3408;DHT22;1717;50.240;8.406;2022-12-18T11:58:09;0.00;99.90
3408;DHT22;1717;50.240;8.406;2022-12-18T12:00:46;0.10;99.90
3408;DHT22;1717;50.240;8.406;2022-12-18T12:03:34;0.10;99.90
3408;DHT22;1717;50.240;8.406;2022-12-18T12:06:13;0.10;99.90
3408;DHT22;1717;50.240;8.406;2022-12-18T12:08:57;0.00;99.90
3408;DHT22;1717;50.240;8.406;2022-12-18T12:11:39;0.10;99.90
3408;DHT22;1717;50.240;8.406;2022-12-18T12:14:22;0.10;99.90
3408;DHT22;1717;50.240;8.406;2022-12-18T12:16:57;0.20;99.90
3408;DHT22;1717;50.240;8.406;2022-12-18T12:19:37;0.10;99.90
3408;DHT22;1717;50.240;8.406;2022-12-18T12:22:13;0.10;99.90
3408;DHT22;1717;50.240;8.406;2022-12-18T12:24:55;0.20;99.90
3408;DHT22;1717;50.240;8.406;2022-12-18T12:27:33;0.20;99.90
3408;DHT22;1717;50.240;8.406;2022-12-18T12:30:05;0.20;99.90
3408;DHT22;1717;50.240;8.406;2022-12-18T12:32:49;0.10;99.90
3408;DHT22;1717;50.240;8.406;2022-12-18T12:35:29;0.10;99.90
3408;DHT22;1717;50.240;8.406;2022-12-18T12:38:06;0.20;99.90
3408;DHT22;1717;50.240;8.406;2022-12-18T12:40:38;0.10;99.90
3408;DHT22;1717;50.240;8.406;2022-12-18T12:43:18;0.10;99.90
3408;DHT22;1717;50.240;8.406;2022-12-18T12:45:49;0.10;99.90
3408;DHT22;1717;50.240;8.406;2022-12-18T12:48:26;0.10;99.90
3408;DHT22;1717;50.240;8.406;2022-12-18T12:50:55;0.10;99.90
3408;DHT22;1717;50.240;8.406;2022-12-18T12:53:27;0.10;99.90
3408;DHT22;1717;50.240;8.406;2022-12-18T12:55:57;0.10;99.90
3408;DHT22;1717;50.240;8.406;2022-12-18T12:58:31;0.10;99.90
3408;DHT22;1717;50.240;8.406;2022-12-18T13:01:08;0.10;99.90
3408;DHT22;1717;50.240;8.406;2022-12-18T13:03:44;0.10;99.90
3408;DHT22;1717;50.240;8.406;2022-12-18T13:06:18;0.10;99.90
3408;DHT22;1717;50.240;8.406;2022-12-18T13:08:55;0.10;99.90
3408;DHT22;1717;50.240;8.406;2022-12-18T13:11:35;0.20;99.90
3408;DHT22;1717;50.240;8.406;2022-12-18T13:14:23;0.10;99.90
3408;DHT22;1717;50.240;8.406;2022-12-18T13:16:52;0.10;99.90
3408;DHT22;1717;50.240;8.406;2022-12-18T13:19:39;0.00;99.90
3408;DHT22;1717;50.240;8.406;2022-12-18T13:22:20;0.10;99.90
3408;DHT22;1717;50.240;8.406;2022-12-18T13:24:48;-0.10;99.90
3408;DHT22;1717;50.240;8.406;2022-12-18T13:27:51;0.00;99.90
3408;DHT22;1717;50.240;8.406;2022-12-18T13:30:46;-0.20;99.90
3408;DHT22;1717;50.240;8.406;2022-12-18T13:33:40;-0.10;99.90
3408;DHT22;1717;50.240;8.406;2022-12-18T13:36:15;0.00;99.90
3408;DHT22;1717;50.240;8.406;2022-12-18T13:38:43;-0.20;99.90
3408;DHT22;1717;50.240;8.406;2022-12-18T13:41:24;-0.30;99.90
3408;DHT22;1717;50.240;8.406;2022-12-18T13:43:52;-0.30;99.90
3408;DHT22;1717;50.240;8.406;2022-12-18T13:46:26;-0.20;99.90
3408;DHT22;1717;50.240;8.406;2022-12-18T13:49:02;-0.30;99.90
3408;DHT22;1717;50.240;8.406;2022-12-18T13:51:32;-0.20;99.90
3408;DHT22;1717;50.240;8.406;2022-12-18T13:54:00;-0.30;99.90
3408;DHT22;1717;50.240;8.406;2022-12-18T13:56:30;-0.30;99.90
3408;DHT22;1717;50.240;8.406;2022-12-18T13:59:08;-0.30;99.90
3408;DHT22;1717;50.240;8.406;2022-12-18T14:01:42;-0.30;99.90
3408;DHT22;1717;50.240;8.406;2022-12-18T14:04:16;-0.20;99.90
3408;DHT22;1717;50.240;8.406;2022-12-18T14:06:43;-0.30;99.90
3408;DHT22;1717;50.240;8.406;2022-12-18T14:09:14;-0.20;99.90
3408;DHT22;1717;50.240;8.406;2022-12-18T14:11:46;-0.30;99.90
3408;DHT22;1717;50.240;8.406;2022-12-18T14:14:14;-0.30;99.90
3408;DHT22;1717;50.240;8.406;2022-12-18T14:16:41;-0.30;99.90
3408;DHT22;1717;50.240;8.406;2022-12-18T14:19:14;-0.30;99.90
3408;DHT22;1717;50.240;8.406;2022-12-18T14:21:46;-0.40;99.90
3408;DHT22;1717;50.240;8.406;2022-12-18T14:24:15;-0.40;99.90
3408;DHT22;1717;50.240;8.406;2022-12-18T14:26:44;-0.40;99.90
3408;DHT22;1717;50.240;8.406;2022-12-18T14:29:25;-0.20;99.90
3408;DHT22;1717;50.240;8.406;2022-12-18T14:32:06;-0.40;99.90
3408;DHT22;1717;50.240;8.406;2022-12-18T14:34:35;-0.40;99.90
3408;DHT22;1717;50.240;8.406;2022-12-18T14:37:02;-0.40;99.90
3408;DHT22;1717;50.240;8.406;2022-12-18T14:39:29;-0.40;99.90
3408;DHT22;1717;50.240;8.406;2022-12-18T14:41:56;-0.40;99.90
3408;DHT22;1717;50.240;8.406;2022-12-18T14:44:23;-0.40;99.90
3408;DHT22;1717;50.240;8.406;2022-12-18T14:46:50;-0.40;99.90
3408;DHT22;1717;50.240;8.406;2022-12-18T14:49:24;-0.50;99.90
3408;DHT22;1717;50.240;8.406;2022-12-18T14:51:55;-0.50;99.90
3408;DHT22;1717;50.240;8.406;2022-12-18T14:54:26;-0.50;99.90
3408;DHT22;1717;50.240;8.406;2022-12-18T14:56:59;-0.60;99.90
3408;DHT22;1717;50.240;8.406;2022-12-18T14:59:27;-0.60;99.90
3408;DHT22;1717;50.240;8.406;2022-12-18T15:01:59;-0.70;99.90
3408;DHT22;1717;50.240;8.406;2022-12-18T15:04:29;-0.60;99.90
3408;DHT22;1717;50.240;8.406;2022-12-18T15:07:09;-0.70;99.90
3408;DHT22;1717;50.240;8.406;2022-12-18T15:09:38;-0.80;99.90
3408;DHT22;1717;50.240;8.406;2022-12-18T15:12:24;-0.80;99.90
3408;DHT22;1717;50.240;8.406;2022-12-18T15:14:52;-0.80;99.90
3408;DHT22;1717;50.240;8.406;2022-12-18T15:17:21;-0.80;99.90
3408;DHT22;1717;50.240;8.406;2022-12-18T15:19:51;-0.90;99.90
3408;DHT22;1717;50.240;8.406;2022-12-18T15:22:26;-0.90;99.90
3408;DHT22;1717;50.240;8.406;2022-12-18T15:24:54;-1.00;99.90
3408;DHT22;1717;50.240;8.406;2022-12-18T15:27:23;-1.00;99.90
3408;DHT22;1717;50.240;8.406;2022-12-18T15:32:47;-1.10;99.90
3408;DHT22;1717;50.240;8.406;2022-12-18T15:35:17;-1.10;99.90
3408;DHT22;1717;50.240;8.406;2022-12-18T15:37:46;-1.10;99.90
3408;DHT22;1717;50.240;8.406;2022-12-18T15:40:14;-1.20;99.90
3408;DHT22;1717;50.240;8.406;2022-12-18T15:42:41;-1.30;99.90
3408;DHT22;1717;50.240;8.406;2022-12-18T15:45:26;-1.30;99.90
3408;DHT22;1717;50.240;8.406;2022-12-18T15:47:53;-1.30;99.90
3408;DHT22;1717;50.240;8.406;2022-12-18T15:50:20;-1.40;99.90
3408;DHT22;1717;50.240;8.406;2022-12-18T15:52:50;-1.40;99.90
3408;DHT22;1717;50.240;8.406;2022-12-18T15:55:20;-1.40;99.90
3408;DHT22;1717;50.240;8.406;2022-12-18T15:58:06;-1.50;99.90
3408;DHT22;1717;50.240;8.406;2022-12-18T16:00:35;-1.50;99.90
3408;DHT22;1717;50.240;8.406;2022-12-18T16:03:04;-1.50;99.90
3408;DHT22;1717;50.240;8.406;2022-12-18T16:05:32;-1.60;99.90
3408;DHT22;1717;50.240;8.406;2022-12-18T16:08:02;-1.60;99.90
3408;DHT22;1717;50.240;8.406;2022-12-18T16:10:30;-1.60;99.90
3408;DHT22;1717;50.240;8.406;2022-12-18T16:12:58;-1.60;99.90
3408;DHT22;1717;50.240;8.406;2022-12-18T16:15:26;-1.60;99.90
3408;DHT22;1717;50.240;8.406;2022-12-18T16:17:53;-1.70;99.90
3408;DHT22;1717;50.240;8.406;2022-12-18T16:20:22;-1.70;99.90
3408;DHT22;1717;50.240;8.406;2022-12-18T16:22:50;-1.70;99.90
3408;DHT22;1717;50.240;8.406;2022-12-18T16:25:23;-1.70;99.90
3408;DHT22;1717;50.240;8.406;2022-12-18T16:27:52;-1.80;99.90
3408;DHT22;1717;50.240;8.406;2022-12-18T16:30:23;-1.80;99.90
3408;DHT22;1717;50.240;8.406;2022-12-18T16:32:51;-1.80;99.90